createdAt,value
2023-04-06T00:00:15.670Z,-1.54
2023-04-06T00:02:42.427Z,-1.54
2023-04-06T00:05:09.314Z,-1.48
2023-04-06T00:07:36.124Z,-1.51
2023-04-06T00:10:03.996Z,-1.56
2023-04-06T00:12:31.096Z,-1.59
2023-04-06T00:14:57.782Z,-1.62
2023-04-06T00:17:24.592Z,-1.76
2023-04-06T00:19:51.374Z,-1.75
2023-04-06T00:22:18.061Z,-1.77
2023-04-06T00:24:44.695Z,-1.76
2023-04-06T00:27:11.430Z,-1.78
2023-04-06T00:29:38.089Z,-1.81
2023-04-06T00:32:04.919Z,-1.86
2023-04-06T00:34:31.648Z,-1.90
2023-04-06T00:36:58.426Z,-1.95
2023-04-06T00:39:25.168Z,-1.97
2023-04-06T00:41:53.660Z,-1.99
2023-04-06T00:44:21.125Z,-2.06
2023-04-06T00:46:47.964Z,-2.06
2023-04-06T00:49:14.985Z,-2.08
2023-04-06T00:51:41.607Z,-2.11
2023-04-06T00:54:08.390Z,-2.12
2023-04-06T00:56:35.455Z,-2.15
2023-04-06T00:59:02.304Z,-2.18
2023-04-06T01:01:30.114Z,-2.22
2023-04-06T01:03:57.162Z,-2.22
2023-04-06T01:06:23.812Z,-2.27
2023-04-06T01:08:50.574Z,-2.30
2023-04-06T01:11:18.658Z,-2.30
2023-04-06T01:13:45.444Z,-2.30
2023-04-06T01:16:12.263Z,-2.33
2023-04-06T01:18:39.143Z,-2.35
2023-04-06T01:21:06.116Z,-2.38
2023-04-06T01:23:32.896Z,-2.39
2023-04-06T01:25:59.563Z,-2.39
2023-04-06T01:28:26.477Z,-2.41
2023-04-06T01:30:53.123Z,-2.42
2023-04-06T01:33:19.851Z,-2.45
2023-04-06T01:35:46.639Z,-2.51
2023-04-06T01:38:13.389Z,-2.48
2023-04-06T01:40:40.107Z,-2.47
2023-04-06T01:43:07.616Z,-2.49
2023-04-06T01:45:34.376Z,-2.49
2023-04-06T01:48:01.372Z,-2.51
2023-04-06T01:50:28.083Z,-2.54
2023-04-06T01:52:54.732Z,-2.58
2023-04-06T01:55:21.496Z,-2.61
2023-04-06T01:57:48.122Z,-2.63
2023-04-06T02:00:15.527Z,-2.68
2023-04-06T02:02:42.359Z,-2.70
2023-04-06T02:05:09.885Z,-2.71
2023-04-06T02:07:36.497Z,-2.70
2023-04-06T02:10:03.633Z,-2.72
2023-04-06T02:12:30.500Z,-2.74
2023-04-06T02:14:57.193Z,-2.72
2023-04-06T02:17:23.898Z,-2.77
2023-04-06T02:19:51.125Z,-2.82
2023-04-06T02:22:17.894Z,-2.82
2023-04-06T02:24:44.648Z,-2.83
2023-04-06T02:27:11.391Z,-2.82
2023-04-06T02:29:38.084Z,-2.85
2023-04-06T02:32:05.209Z,-2.87
2023-04-06T02:34:31.988Z,-2.90
2023-04-06T02:36:58.753Z,-2.93
2023-04-06T02:39:25.430Z,-2.99
2023-04-06T02:41:52.050Z,-2.97
2023-04-06T02:44:18.738Z,-3.00
2023-04-06T02:46:45.429Z,-3.03
2023-04-06T02:49:12.130Z,-3.04
2023-04-06T02:51:38.786Z,-3.09
2023-04-06T02:54:05.502Z,-3.11
2023-04-06T02:56:32.190Z,-3.12
2023-04-06T02:58:59.053Z,-3.11
2023-04-06T03:01:27.400Z,-3.10
2023-04-06T03:03:54.242Z,-3.10
2023-04-06T03:06:21.059Z,-3.09
2023-04-06T03:08:48.301Z,-3.10
2023-04-06T03:11:15.041Z,-3.12
2023-04-06T03:13:41.854Z,-3.15
2023-04-06T03:16:08.550Z,-3.21
2023-04-06T03:18:35.409Z,-3.26
2023-04-06T03:21:02.085Z,-3.29
2023-04-06T03:23:28.828Z,-3.28
2023-04-06T03:25:55.480Z,-3.27
2023-04-06T03:28:22.262Z,-3.31
2023-04-06T03:30:48.940Z,-3.34
2023-04-06T03:33:15.815Z,-3.34
2023-04-06T03:35:42.592Z,-3.38
2023-04-06T03:38:09.297Z,-3.39
2023-04-06T03:40:36.065Z,-3.44
2023-04-06T03:43:02.774Z,-3.49
2023-04-06T03:45:29.521Z,-3.51
2023-04-06T03:47:56.338Z,-3.53
2023-04-06T03:50:23.240Z,-3.58
2023-04-06T03:52:49.920Z,-3.58
2023-04-06T03:55:16.673Z,-3.61
2023-04-06T03:57:43.380Z,-3.63
2023-04-06T04:00:11.000Z,-3.69
2023-04-06T04:02:37.656Z,-3.69
2023-04-06T04:05:04.969Z,-3.71
2023-04-06T04:07:31.726Z,-3.70
2023-04-06T04:09:58.620Z,-3.67
2023-04-06T04:12:25.452Z,-3.68
2023-04-06T04:14:52.101Z,-3.69
2023-04-06T04:17:18.813Z,-3.68
2023-04-06T04:19:45.502Z,-3.70
2023-04-06T04:22:12.305Z,-3.73
2023-04-06T04:24:38.977Z,-3.77
2023-04-06T04:27:06.237Z,-3.81
2023-04-06T04:29:32.944Z,-3.81
2023-04-06T04:31:59.623Z,-3.82
2023-04-06T04:34:26.881Z,-3.84
2023-04-06T04:36:53.874Z,-3.86
2023-04-06T04:39:20.938Z,-3.86
2023-04-06T04:41:47.624Z,-3.89
2023-04-06T04:44:14.342Z,-3.89
2023-04-06T04:46:42.526Z,-3.90
2023-04-06T04:49:09.543Z,-3.91
2023-04-06T04:51:37.532Z,-3.91
2023-04-06T04:54:04.310Z,-3.93
2023-04-06T04:56:31.091Z,-3.94
2023-04-06T04:58:57.986Z,-3.96
2023-04-06T05:01:24.788Z,-3.94
2023-04-06T05:03:51.721Z,-3.94
2023-04-06T05:06:20.040Z,-3.93
2023-04-06T05:08:46.728Z,-3.93
2023-04-06T05:11:13.592Z,-3.91
2023-04-06T05:13:40.626Z,-3.91
2023-04-06T05:16:07.738Z,-3.88
2023-04-06T05:18:34.679Z,-3.86
2023-04-06T05:21:01.774Z,-3.90
2023-04-06T05:23:28.560Z,-3.86
2023-04-06T05:25:55.370Z,-3.86
2023-04-06T05:28:22.271Z,-3.84
2023-04-06T05:30:48.941Z,-3.84
2023-04-06T05:33:15.579Z,-3.80
2023-04-06T05:35:42.288Z,-3.75
2023-04-06T05:38:11.226Z,-3.72
2023-04-06T05:40:39.373Z,-3.68
2023-04-06T05:43:06.135Z,-3.66
2023-04-06T05:45:32.959Z,-3.63
2023-04-06T05:47:59.678Z,-3.60
2023-04-06T05:50:26.421Z,-3.58
2023-04-06T05:52:53.028Z,-3.54
2023-04-06T05:55:19.829Z,-3.51
2023-04-06T05:57:46.470Z,-3.47
2023-04-06T06:00:14.092Z,-3.42
2023-04-06T06:02:43.186Z,-3.38
2023-04-06T06:05:11.357Z,-3.32
2023-04-06T06:07:38.098Z,-3.26
2023-04-06T06:10:04.948Z,-3.22
2023-04-06T06:12:31.721Z,-3.15
2023-04-06T06:14:58.473Z,-3.08
2023-04-06T06:17:25.270Z,-3.05
2023-04-06T06:19:52.048Z,-3.00
2023-04-06T06:22:18.794Z,-2.95
2023-04-06T06:24:45.421Z,-2.88
2023-04-06T06:27:12.182Z,-2.86
2023-04-06T06:29:39.004Z,-2.72
2023-04-06T06:32:06.043Z,-2.60
2023-04-06T06:34:33.003Z,-2.53
2023-04-06T06:36:59.668Z,-2.47
2023-04-06T06:39:26.535Z,-2.39
2023-04-06T06:41:53.181Z,-2.33
2023-04-06T06:44:19.861Z,-2.25
2023-04-06T06:46:46.621Z,-2.18
2023-04-06T06:49:13.464Z,-2.05
2023-04-06T06:51:40.415Z,-1.96
2023-04-06T06:54:07.640Z,-1.87
2023-04-06T06:56:36.921Z,-1.72
2023-04-06T06:59:03.690Z,-1.63
2023-04-06T07:01:30.601Z,-1.52
2023-04-06T07:03:57.339Z,-1.41
2023-04-06T07:06:24.121Z,-1.29
2023-04-06T07:08:51.009Z,-1.03
2023-04-06T07:11:17.759Z,-0.75
2023-04-06T07:13:44.498Z,-0.42
2023-04-06T07:16:11.278Z,-0.08
2023-04-06T07:18:37.929Z,0.24
2023-04-06T07:21:05.015Z,0.56
2023-04-06T07:23:31.867Z,0.91
2023-04-06T07:25:58.584Z,1.24
2023-04-06T07:28:25.295Z,1.58
2023-04-06T07:30:52.165Z,1.95
2023-04-06T07:33:18.861Z,2.26
2023-04-06T07:35:46.482Z,2.65
2023-04-06T07:38:13.279Z,2.83
2023-04-06T07:40:40.016Z,3.18
2023-04-06T07:43:06.987Z,3.49
2023-04-06T07:45:33.636Z,3.75
2023-04-06T07:48:00.355Z,3.89
2023-04-06T07:50:27.067Z,4.10
2023-04-06T07:52:53.815Z,4.38
2023-04-06T07:55:20.586Z,4.53
2023-04-06T07:57:47.242Z,4.71
2023-04-06T08:00:14.721Z,4.95
2023-04-06T08:02:41.552Z,5.11
2023-04-06T08:05:08.709Z,5.39
2023-04-06T08:07:36.626Z,5.62
2023-04-06T08:10:03.712Z,5.61
2023-04-06T08:12:30.934Z,5.78
2023-04-06T08:14:57.972Z,5.81
2023-04-06T08:17:24.696Z,5.84
2023-04-06T08:19:51.549Z,5.95
2023-04-06T08:22:18.746Z,6.02
2023-04-06T08:24:45.590Z,5.94
2023-04-06T08:27:12.343Z,5.99
2023-04-06T08:29:39.070Z,6.00
2023-04-06T08:32:06.356Z,5.92
2023-04-06T08:34:34.669Z,5.87
2023-04-06T08:37:01.643Z,5.88
2023-04-06T08:39:29.251Z,6.05
2023-04-06T08:42:01.092Z,6.06
2023-04-06T08:44:28.225Z,6.22
2023-04-06T08:46:55.874Z,6.26
2023-04-06T08:49:23.461Z,6.24
2023-04-06T08:51:51.247Z,6.18
2023-04-06T08:54:17.947Z,6.17
2023-04-06T08:56:44.883Z,6.24
2023-04-06T08:59:12.149Z,6.42
2023-04-06T09:01:44.461Z,6.98
2023-04-06T09:04:13.156Z,7.02
2023-04-06T09:06:41.758Z,7.03
2023-04-06T09:09:09.201Z,7.20
2023-04-06T09:11:47.839Z,7.15
2023-04-06T09:14:14.794Z,7.19
2023-04-06T09:16:46.648Z,7.27
2023-04-06T09:19:13.808Z,7.31
2023-04-06T09:21:43.816Z,7.47
2023-04-06T09:24:11.161Z,7.74
2023-04-06T09:26:48.287Z,7.84
2023-04-06T09:29:27.702Z,7.75
2023-04-06T09:32:03.854Z,7.54
2023-04-06T09:34:30.486Z,7.56
2023-04-06T09:36:57.300Z,7.96
2023-04-06T09:39:26.834Z,8.14
2023-04-06T09:41:55.195Z,8.18
2023-04-06T09:44:22.172Z,8.11
2023-04-06T09:46:58.732Z,8.03
2023-04-06T09:49:28.904Z,8.00
2023-04-06T09:51:57.996Z,8.14
2023-04-06T09:54:27.499Z,8.30
2023-04-06T09:57:17.255Z,8.38
2023-04-06T09:59:54.970Z,8.44
2023-04-06T10:02:36.017Z,8.59
2023-04-06T10:05:38.732Z,8.59
2023-04-06T10:08:09.965Z,8.50
2023-04-06T10:10:37.071Z,8.57
2023-04-06T10:13:05.517Z,8.47
2023-04-06T10:15:33.206Z,8.50
2023-04-06T10:18:01.175Z,8.71
2023-04-06T10:20:40.173Z,8.76
2023-04-06T10:23:16.881Z,9.10
2023-04-06T10:26:00.572Z,9.12
2023-04-06T10:28:32.397Z,9.21
2023-04-06T10:31:00.782Z,9.18
2023-04-06T10:33:28.658Z,9.15
2023-04-06T10:35:56.812Z,9.30
2023-04-06T10:38:37.665Z,9.48
2023-04-06T10:41:07.933Z,9.59
2023-04-06T10:43:36.812Z,9.60
2023-04-06T10:46:05.500Z,9.51
2023-04-06T10:48:41.421Z,9.82
2023-04-06T10:51:14.709Z,9.99
2023-04-06T10:53:44.721Z,9.79
2023-04-06T10:56:13.448Z,9.69
2023-04-06T10:58:49.083Z,9.64
2023-04-06T11:01:20.192Z,9.68
2023-04-06T11:03:48.921Z,9.83
2023-04-06T11:06:41.806Z,9.78
2023-04-06T11:09:10.035Z,10.12
2023-04-06T11:11:40.118Z,10.35
2023-04-06T11:14:06.758Z,10.37
2023-04-06T11:16:34.434Z,10.10
2023-04-06T11:19:07.070Z,10.28
2023-04-06T11:21:37.763Z,10.37
2023-04-06T11:24:16.653Z,10.45
2023-04-06T11:26:46.854Z,10.61
2023-04-06T11:29:14.675Z,10.83
2023-04-06T11:31:46.812Z,11.06
2023-04-06T11:34:17.257Z,10.96
2023-04-06T11:36:45.844Z,11.47
2023-04-06T11:39:14.739Z,11.52
2023-04-06T11:41:43.966Z,11.59
2023-04-06T11:44:10.924Z,11.71
2023-04-06T11:46:37.696Z,11.50
2023-04-06T11:49:04.575Z,11.22
2023-04-06T11:51:31.281Z,11.71
2023-04-06T11:53:58.018Z,11.90
2023-04-06T11:56:26.358Z,12.11
2023-04-06T11:58:55.700Z,12.57
2023-04-06T12:01:22.687Z,12.75
2023-04-06T12:03:49.850Z,12.60
2023-04-06T12:06:16.738Z,12.71
2023-04-06T12:08:43.511Z,12.78
2023-04-06T12:11:10.158Z,13.31
2023-04-06T12:13:36.832Z,13.64
2023-04-06T12:16:03.722Z,13.62
2023-04-06T12:18:31.403Z,14.01
2023-04-06T12:20:58.145Z,14.50
2023-04-06T12:25:50.114Z,15.11
2023-04-06T12:28:17.051Z,15.11
2023-04-06T12:30:43.747Z,14.74
2023-04-06T12:33:10.504Z,14.60
2023-04-06T12:35:38.260Z,14.08
2023-04-06T12:38:04.906Z,14.55
2023-04-06T12:40:31.599Z,15.40
2023-04-06T12:42:58.271Z,16.11
2023-04-06T12:45:25.018Z,16.11
2023-04-06T12:47:51.941Z,16.09
2023-04-06T12:50:18.914Z,15.58
2023-04-06T12:52:45.825Z,15.93
2023-04-06T12:55:12.640Z,16.57
2023-04-06T12:57:39.398Z,16.21
2023-04-06T13:00:09.088Z,16.49
2023-04-06T13:02:36.319Z,16.13
2023-04-06T13:05:03.195Z,15.87
2023-04-06T13:07:29.912Z,15.77
2023-04-06T13:09:56.628Z,16.35
2023-04-06T13:12:23.326Z,16.85
2023-04-06T13:14:53.485Z,16.16
2023-04-06T13:17:20.189Z,16.48
2023-04-06T13:19:46.867Z,16.29
2023-04-06T13:22:13.484Z,15.91
2023-04-06T13:24:40.352Z,16.44
2023-04-06T13:27:07.023Z,16.99
2023-04-06T13:29:35.295Z,16.41
2023-04-06T13:32:02.067Z,16.95
2023-04-06T13:34:28.824Z,17.52
2023-04-06T13:36:55.548Z,17.24
2023-04-06T13:39:22.273Z,17.06
2023-04-06T13:41:48.968Z,16.67
2023-04-06T13:44:15.735Z,16.20
2023-04-06T13:46:42.336Z,16.65
2023-04-06T13:49:09.028Z,17.31
2023-04-06T13:51:36.417Z,17.11
2023-04-06T13:54:03.018Z,15.21
2023-04-06T13:56:29.660Z,15.33
2023-04-06T13:58:57.215Z,15.90
2023-04-06T14:01:23.873Z,15.84
2023-04-06T14:03:52.027Z,15.16
2023-04-06T14:08:48.360Z,16.04
2023-04-06T14:11:15.775Z,16.90
2023-04-06T14:13:43.041Z,17.00
2023-04-06T14:16:09.989Z,17.59
2023-04-06T14:18:37.892Z,17.29
2023-04-06T14:21:04.853Z,17.82
2023-04-06T14:23:31.463Z,17.00
2023-04-06T14:26:09.403Z,14.56
2023-04-06T14:28:37.488Z,15.23
2023-04-06T14:31:13.006Z,15.34
2023-04-06T14:33:40.487Z,15.92
2023-04-06T14:36:08.009Z,15.71
2023-04-06T14:38:34.803Z,15.64
2023-04-06T14:41:01.740Z,15.11
2023-04-06T14:43:28.637Z,15.98
2023-04-06T14:45:55.331Z,15.29
2023-04-06T14:48:21.970Z,15.67
2023-04-06T14:50:56.082Z,15.18
2023-04-06T14:53:24.767Z,14.82
2023-04-06T14:55:52.471Z,14.72
2023-04-06T14:58:23.479Z,14.21
2023-04-06T15:00:51.229Z,15.05
2023-04-06T15:03:18.023Z,15.34
2023-04-06T15:05:45.420Z,15.27
2023-04-06T15:08:12.702Z,15.56
2023-04-06T15:10:39.409Z,15.99
2023-04-06T15:13:06.239Z,16.33
2023-04-06T15:15:33.085Z,15.59
2023-04-06T15:18:03.341Z,14.33
2023-04-06T15:20:30.774Z,14.13
2023-04-06T15:22:57.716Z,13.68
2023-04-06T15:25:24.494Z,13.97
2023-04-06T15:27:51.357Z,14.02
2023-04-06T15:30:17.987Z,14.17
2023-04-06T15:32:54.857Z,14.64
2023-04-06T15:35:21.881Z,14.80
2023-04-06T15:37:48.849Z,13.51
2023-04-06T15:40:16.765Z,13.37
2023-04-06T15:42:44.052Z,13.51
2023-04-06T15:45:11.739Z,13.24
2023-04-06T15:47:39.419Z,13.38
2023-04-06T15:50:06.589Z,13.44
2023-04-06T15:52:33.238Z,13.27
2023-04-06T15:54:59.879Z,12.99
2023-04-06T15:57:26.513Z,13.06
2023-04-06T15:59:55.302Z,13.20
2023-04-06T16:02:25.996Z,13.40
2023-04-06T16:04:56.590Z,13.39
2023-04-06T16:07:23.481Z,13.67
2023-04-06T16:09:53.180Z,13.58
2023-04-06T16:12:20.478Z,13.69
2023-04-06T16:14:47.270Z,13.67
2023-04-06T16:17:14.279Z,13.64
2023-04-06T16:19:41.780Z,13.33
2023-04-06T16:22:08.725Z,13.40
2023-04-06T16:24:35.476Z,13.03
2023-04-06T16:27:02.181Z,12.86
2023-04-06T16:29:28.856Z,12.68
2023-04-06T16:31:55.625Z,12.17
2023-04-06T16:34:22.321Z,12.37
2023-04-06T16:36:49.014Z,12.34
2023-04-06T16:39:17.195Z,12.53
2023-04-06T16:41:43.810Z,12.59
2023-04-06T16:44:11.366Z,12.50
2023-04-06T16:46:39.149Z,12.30
2023-04-06T16:49:07.031Z,12.31
2023-04-06T16:51:33.742Z,12.24
2023-04-06T16:54:02.040Z,12.30
2023-04-06T16:56:28.795Z,12.36
2023-04-06T16:58:55.560Z,12.40
2023-04-06T17:01:27.934Z,12.33
2023-04-06T17:03:56.064Z,12.33
2023-04-06T17:06:23.228Z,12.30
2023-04-06T17:08:50.834Z,12.16
2023-04-06T17:11:21.688Z,11.97
2023-04-06T17:13:52.286Z,11.90
2023-04-06T17:16:19.580Z,11.75
2023-04-06T17:18:46.262Z,11.48
2023-04-06T17:21:17.013Z,11.35
2023-04-06T17:23:45.086Z,11.31
2023-04-06T17:26:11.918Z,11.24
2023-04-06T17:28:39.017Z,11.24
2023-04-06T17:31:10.598Z,11.15
2023-04-06T17:33:38.870Z,10.99
2023-04-06T17:36:07.809Z,10.92
2023-04-06T17:38:34.614Z,10.87
2023-04-06T17:41:07.538Z,10.77
2023-04-06T17:43:34.159Z,10.68
2023-04-06T17:46:00.828Z,10.61
2023-04-06T17:48:29.288Z,10.37
2023-04-06T17:50:56.172Z,10.40
2023-04-06T17:53:22.877Z,10.26
2023-04-06T17:55:49.527Z,10.19
2023-04-06T17:58:16.179Z,10.06
2023-04-06T18:00:42.841Z,9.96
2023-04-06T18:03:09.462Z,9.87
2023-04-06T18:05:36.258Z,9.77
2023-04-06T18:08:02.840Z,9.66
2023-04-06T18:10:29.418Z,9.58
2023-04-06T18:12:56.359Z,9.46
2023-04-06T18:15:22.984Z,9.37
2023-04-06T18:17:50.552Z,9.27
2023-04-06T18:20:17.360Z,9.17
2023-04-06T18:22:44.175Z,9.15
2023-04-06T18:25:10.825Z,9.10
2023-04-06T18:27:37.474Z,8.98
2023-04-06T18:30:04.902Z,8.85
2023-04-06T18:32:31.716Z,8.70
2023-04-06T18:34:59.060Z,8.55
2023-04-06T18:37:26.251Z,8.40
2023-04-06T18:39:54.473Z,8.30
2023-04-06T18:42:21.343Z,8.23
2023-04-06T18:44:48.252Z,8.16
2023-04-06T18:47:14.947Z,8.02
2023-04-06T18:49:41.665Z,7.85
2023-04-06T18:52:08.328Z,7.76
2023-04-06T18:54:34.994Z,7.71
2023-04-06T18:57:01.865Z,7.68
2023-04-06T18:59:30.465Z,7.55
2023-04-06T19:01:58.709Z,7.38
2023-04-06T19:04:25.667Z,7.27
2023-04-06T19:06:52.501Z,7.13
2023-04-06T19:09:19.156Z,7.02
2023-04-06T19:11:45.876Z,6.98
2023-04-06T19:14:12.490Z,6.95
2023-04-06T19:16:42.693Z,6.86
2023-04-06T19:19:09.812Z,6.72
2023-04-06T19:21:37.385Z,6.63
2023-04-06T19:24:04.273Z,6.53
2023-04-06T19:26:32.702Z,6.44
2023-04-06T19:28:59.407Z,6.35
2023-04-06T19:31:27.978Z,6.25
2023-04-06T19:33:56.442Z,6.11
2023-04-06T19:36:23.235Z,6.03
2023-04-06T19:38:49.883Z,6.02
2023-04-06T19:41:16.644Z,5.96
2023-04-06T19:43:43.260Z,5.88
2023-04-06T19:46:10.882Z,5.85
2023-04-06T19:48:37.575Z,5.76
2023-04-06T19:51:04.305Z,5.64
2023-04-06T19:53:31.034Z,5.61
2023-04-06T19:55:57.754Z,5.56
2023-04-06T19:58:24.439Z,5.54
2023-04-06T20:00:51.134Z,5.43
2023-04-06T20:03:17.970Z,5.36
2023-04-06T20:05:44.864Z,5.25
2023-04-06T20:08:11.476Z,5.14
2023-04-06T20:10:38.426Z,5.07
2023-04-06T20:13:05.207Z,4.96
2023-04-06T20:15:31.935Z,4.83
2023-04-06T20:17:58.606Z,4.77
2023-04-06T20:20:25.567Z,4.68
2023-04-06T20:22:52.277Z,4.73
2023-04-06T20:25:19.972Z,4.63
2023-04-06T20:27:46.718Z,4.54
2023-04-06T20:30:17.122Z,4.52
2023-04-06T20:32:44.006Z,4.47
2023-04-06T20:35:11.111Z,4.43
2023-04-06T20:37:37.989Z,4.33
2023-04-06T20:40:05.376Z,4.21
2023-04-06T20:42:32.064Z,4.14
2023-04-06T20:44:58.736Z,4.10
2023-04-06T20:47:25.623Z,4.14
2023-04-06T20:49:52.547Z,4.06
2023-04-06T20:52:19.228Z,4.03
2023-04-06T20:54:46.022Z,3.96
2023-04-06T20:57:12.762Z,3.84
2023-04-06T20:59:39.361Z,3.77
2023-04-06T21:02:06.192Z,3.73
2023-04-06T21:04:34.954Z,3.71
2023-04-06T21:07:07.248Z,3.63
2023-04-06T21:09:38.733Z,3.64
2023-04-06T21:12:06.701Z,3.64
2023-04-06T21:14:33.944Z,3.60
2023-04-06T21:17:00.808Z,3.48
2023-04-06T21:19:27.853Z,3.36
2023-04-06T21:21:55.075Z,3.26
2023-04-06T21:24:21.837Z,3.22
2023-04-06T21:26:48.606Z,3.12
2023-04-06T21:29:15.367Z,3.14
2023-04-06T21:31:42.588Z,3.09
2023-04-06T21:34:11.074Z,3.09
2023-04-06T21:36:38.725Z,3.08
2023-04-06T21:39:06.095Z,2.97
2023-04-06T21:41:33.925Z,2.86
2023-04-06T21:44:00.959Z,2.77
2023-04-06T21:46:27.893Z,2.73
2023-04-06T21:48:54.602Z,2.75
2023-04-06T21:51:23.056Z,2.66
2023-04-06T21:53:49.817Z,2.58
2023-04-06T21:56:22.127Z,2.52
2023-04-06T21:58:49.379Z,2.47
2023-04-06T22:01:17.447Z,2.39
2023-04-06T22:03:45.440Z,2.41
2023-04-06T22:06:12.673Z,2.48
2023-04-06T22:08:39.421Z,2.44
2023-04-06T22:11:11.312Z,2.43
2023-04-06T22:13:39.299Z,2.36
2023-04-06T22:16:07.102Z,2.28
2023-04-06T22:18:35.542Z,2.28
2023-04-06T22:21:06.219Z,2.21
2023-04-06T22:23:33.295Z,1.96
2023-04-06T22:26:00.156Z,1.96
2023-04-06T22:28:27.227Z,1.94
2023-04-06T22:30:53.954Z,1.97
2023-04-06T22:33:20.684Z,2.07
2023-04-06T22:35:47.296Z,1.81
2023-04-06T22:38:14.052Z,1.72
2023-04-06T22:40:40.652Z,1.71
2023-04-06T22:43:07.423Z,1.78
2023-04-06T22:45:34.096Z,1.78
2023-04-06T22:48:01.092Z,1.75
2023-04-06T22:50:27.806Z,1.69
2023-04-06T22:52:54.579Z,1.67
2023-04-06T22:55:21.576Z,1.60
2023-04-06T22:57:48.287Z,1.55
2023-04-06T23:00:15.308Z,1.54
2023-04-06T23:02:42.103Z,1.53
2023-04-06T23:05:09.283Z,1.51
2023-04-06T23:07:36.163Z,1.45
2023-04-06T23:10:03.430Z,1.41
2023-04-06T23:12:30.434Z,1.32
2023-04-06T23:14:57.187Z,1.29
2023-04-06T23:17:24.061Z,1.29
2023-04-06T23:19:51.450Z,1.26
2023-04-06T23:22:18.379Z,1.23
2023-04-06T23:24:44.961Z,1.20
2023-04-06T23:27:11.602Z,1.13
2023-04-06T23:29:38.354Z,1.07
2023-04-06T23:32:05.163Z,1.04
2023-04-06T23:34:32.056Z,1.05
2023-04-06T23:37:02.808Z,1.03
2023-04-06T23:39:30.491Z,1.00
2023-04-06T23:41:57.866Z,0.96
2023-04-06T23:44:25.003Z,0.90
2023-04-06T23:46:52.080Z,0.90
2023-04-06T23:49:18.889Z,0.87
2023-04-06T23:51:45.579Z,0.84
2023-04-06T23:54:12.425Z,0.80
2023-04-06T23:56:39.100Z,0.75
2023-04-06T23:59:05.895Z,0.71
